sensor_id;sensor_type;location;lat;lon;timestamp;P1;durP1;ratioP1;P2;durP2;ratioP2
12707;SDS011;6418;50.824;4.718;2023-05-07T00:01:25;15.73;;;8.17;;
12707;SDS011;6418;50.824;4.718;2023-05-07T00:04:10;15.07;;;7.73;;
12707;SDS011;6418;50.824;4.718;2023-05-07T00:06:57;14.00;;;7.47;;
12707;SDS011;6418;50.824;4.718;2023-05-07T00:09:44;15.53;;;7.60;;
12707;SDS011;6418;50.824;4.718;2023-05-07T00:12:19;13.40;;;7.23;;
12707;SDS011;6418;50.824;4.718;2023-05-07T00:15:10;14.07;;;7.70;;
12707;SDS011;6418;50.824;4.718;2023-05-07T00:17:49;15.20;;;7.97;;
12707;SDS011;6418;50.824;4.718;2023-05-07T00:20:35;14.50;;;7.73;;
12707;SDS011;6418;50.824;4.718;2023-05-07T00:23:08;14.43;;;8.33;;
12707;SDS011;6418;50.824;4.718;2023-05-07T00:25:43;14.20;;;7.67;;
12707;SDS011;6418;50.824;4.718;2023-05-07T00:28:15;14.20;;;8.00;;
12707;SDS011;6418;50.824;4.718;2023-05-07T00:31:01;15.20;;;8.23;;
12707;SDS011;6418;50.824;4.718;2023-05-07T00:33:59;15.90;;;8.17;;
12707;SDS011;6418;50.824;4.718;2023-05-07T00:36:43;15.57;;;8.43;;
12707;SDS011;6418;50.824;4.718;2023-05-07T00:39:20;15.57;;;8.57;;
12707;SDS011;6418;50.824;4.718;2023-05-07T00:41:59;14.20;;;8.07;;
12707;SDS011;6418;50.824;4.718;2023-05-07T00:44:34;16.27;;;8.43;;
12707;SDS011;6418;50.824;4.718;2023-05-07T00:47:08;13.33;;;7.90;;
12707;SDS011;6418;50.824;4.718;2023-05-07T00:49:44;14.50;;;7.87;;
12707;SDS011;6418;50.824;4.718;2023-05-07T00:52:27;17.00;;;7.73;;
12707;SDS011;6418;50.824;4.718;2023-05-07T00:54:59;14.87;;;8.00;;
12707;SDS011;6418;50.824;4.718;2023-05-07T00:57:45;13.43;;;7.70;;
12707;SDS011;6418;50.824;4.718;2023-05-07T01:00:24;14.37;;;7.50;;
12707;SDS011;6418;50.824;4.718;2023-05-07T01:03:02;13.63;;;7.70;;
12707;SDS011;6418;50.824;4.718;2023-05-07T01:05:39;13.43;;;7.73;;
12707;SDS011;6418;50.824;4.718;2023-05-07T01:08:26;15.07;;;8.10;;
12707;SDS011;6418;50.824;4.718;2023-05-07T01:10:57;16.77;;;7.27;;
12707;SDS011;6418;50.824;4.718;2023-05-07T01:13:41;14.47;;;7.70;;
12707;SDS011;6418;50.824;4.718;2023-05-07T01:16:17;14.90;;;7.90;;
12707;SDS011;6418;50.824;4.718;2023-05-07T01:18:46;13.60;;;7.33;;
12707;SDS011;6418;50.824;4.718;2023-05-07T01:21:20;13.77;;;8.00;;
12707;SDS011;6418;50.824;4.718;2023-05-07T01:23:58;15.63;;;8.00;;
12707;SDS011;6418;50.824;4.718;2023-05-07T01:26:31;16.93;;;8.23;;
12707;SDS011;6418;50.824;4.718;2023-05-07T01:29:05;16.63;;;8.33;;
12707;SDS011;6418;50.824;4.718;2023-05-07T01:31:36;15.83;;;8.13;;
12707;SDS011;6418;50.824;4.718;2023-05-07T01:34:20;13.90;;;7.70;;
12707;SDS011;6418;50.824;4.718;2023-05-07T01:37:04;14.80;;;7.47;;
12707;SDS011;6418;50.824;4.718;2023-05-07T01:39:35;19.07;;;7.83;;
12707;SDS011;6418;50.824;4.718;2023-05-07T01:42:11;16.17;;;7.90;;
12707;SDS011;6418;50.824;4.718;2023-05-07T01:44:48;13.70;;;7.67;;
12707;SDS011;6418;50.824;4.718;2023-05-07T01:47:34;14.53;;;7.47;;
12707;SDS011;6418;50.824;4.718;2023-05-07T01:50:21;13.27;;;6.83;;
12707;SDS011;6418;50.824;4.718;2023-05-07T01:52:56;13.23;;;7.17;;
12707;SDS011;6418;50.824;4.718;2023-05-07T01:55:50;14.93;;;7.27;;
12707;SDS011;6418;50.824;4.718;2023-05-07T01:58:21;12.83;;;6.93;;
12707;SDS011;6418;50.824;4.718;2023-05-07T02:00:59;13.97;;;7.33;;
12707;SDS011;6418;50.824;4.718;2023-05-07T02:03:41;13.70;;;7.40;;
12707;SDS011;6418;50.824;4.718;2023-05-07T02:06:19;14.27;;;7.27;;
12707;SDS011;6418;50.824;4.718;2023-05-07T02:09:03;13.23;;;7.30;;
12707;SDS011;6418;50.824;4.718;2023-05-07T02:11:38;14.47;;;7.40;;
12707;SDS011;6418;50.824;4.718;2023-05-07T02:14:11;15.03;;;7.33;;
12707;SDS011;6418;50.824;4.718;2023-05-07T02:16:47;13.33;;;7.10;;
12707;SDS011;6418;50.824;4.718;2023-05-07T02:19:23;16.67;;;7.77;;
12707;SDS011;6418;50.824;4.718;2023-05-07T02:22:04;13.13;;;7.20;;
12707;SDS011;6418;50.824;4.718;2023-05-07T02:24:36;13.97;;;7.50;;
12707;SDS011;6418;50.824;4.718;2023-05-07T02:30:25;14.87;;;7.27;;
12707;SDS011;6418;50.824;4.718;2023-05-07T02:33:02;14.07;;;7.63;;
12707;SDS011;6418;50.824;4.718;2023-05-07T02:35:34;13.93;;;7.60;;
12707;SDS011;6418;50.824;4.718;2023-05-07T02:38:11;12.97;;;7.23;;
12707;SDS011;6418;50.824;4.718;2023-05-07T02:40:48;11.73;;;7.00;;
12707;SDS011;6418;50.824;4.718;2023-05-07T02:43:20;14.20;;;7.80;;
12707;SDS011;6418;50.824;4.718;2023-05-07T02:46:02;15.07;;;7.83;;
12707;SDS011;6418;50.824;4.718;2023-05-07T02:48:39;16.80;;;8.50;;
12707;SDS011;6418;50.824;4.718;2023-05-07T02:51:14;15.10;;;8.10;;
12707;SDS011;6418;50.824;4.718;2023-05-07T02:53:48;15.77;;;8.30;;
12707;SDS011;6418;50.824;4.718;2023-05-07T02:56:25;12.37;;;7.77;;
12707;SDS011;6418;50.824;4.718;2023-05-07T02:59:14;16.07;;;8.27;;
12707;SDS011;6418;50.824;4.718;2023-05-07T03:01:50;15.70;;;8.27;;
12707;SDS011;6418;50.824;4.718;2023-05-07T03:04:34;13.77;;;7.93;;
12707;SDS011;6418;50.824;4.718;2023-05-07T03:07:13;14.40;;;8.10;;
12707;SDS011;6418;50.824;4.718;2023-05-07T03:09:58;14.17;;;7.87;;
12707;SDS011;6418;50.824;4.718;2023-05-07T03:12:36;13.93;;;7.70;;
12707;SDS011;6418;50.824;4.718;2023-05-07T03:15:20;18.10;;;8.13;;
12707;SDS011;6418;50.824;4.718;2023-05-07T03:17:54;15.13;;;7.67;;
12707;SDS011;6418;50.824;4.718;2023-05-07T03:20:28;13.27;;;7.57;;
12707;SDS011;6418;50.824;4.718;2023-05-07T03:23:11;15.77;;;7.23;;
12707;SDS011;6418;50.824;4.718;2023-05-07T03:25:46;13.17;;;7.63;;
12707;SDS011;6418;50.824;4.718;2023-05-07T03:28:31;13.30;;;7.70;;
12707;SDS011;6418;50.824;4.718;2023-05-07T03:31:14;14.33;;;8.17;;
12707;SDS011;6418;50.824;4.718;2023-05-07T03:33:55;14.53;;;8.10;;
12707;SDS011;6418;50.824;4.718;2023-05-07T03:36:39;14.77;;;8.33;;
12707;SDS011;6418;50.824;4.718;2023-05-07T03:39:32;16.23;;;8.17;;
12707;SDS011;6418;50.824;4.718;2023-05-07T03:42:05;14.47;;;7.50;;
12707;SDS011;6418;50.824;4.718;2023-05-07T03:44:41;15.17;;;8.33;;
12707;SDS011;6418;50.824;4.718;2023-05-07T03:47:25;13.90;;;7.90;;
12707;SDS011;6418;50.824;4.718;2023-05-07T03:50:02;13.33;;;8.23;;
12707;SDS011;6418;50.824;4.718;2023-05-07T03:52:32;14.63;;;8.40;;
12707;SDS011;6418;50.824;4.718;2023-05-07T03:55:10;14.03;;;7.73;;
12707;SDS011;6418;50.824;4.718;2023-05-07T03:57:58;15.13;;;7.90;;
12707;SDS011;6418;50.824;4.718;2023-05-07T04:00:40;14.57;;;7.93;;
12707;SDS011;6418;50.824;4.718;2023-05-07T04:03:30;14.70;;;8.20;;
12707;SDS011;6418;50.824;4.718;2023-05-07T04:06:28;13.70;;;7.97;;
12707;SDS011;6418;50.824;4.718;2023-05-07T04:09:28;12.87;;;7.60;;
12707;SDS011;6418;50.824;4.718;2023-05-07T04:18:57;15.67;;;7.87;;
12707;SDS011;6418;50.824;4.718;2023-05-07T04:21:33;13.03;;;7.80;;
12707;SDS011;6418;50.824;4.718;2023-05-07T04:24:15;18.13;;;8.03;;
12707;SDS011;6418;50.824;4.718;2023-05-07T04:26:57;22.87;;;9.00;;
12707;SDS011;6418;50.824;4.718;2023-05-07T04:29:33;18.40;;;9.13;;
12707;SDS011;6418;50.824;4.718;2023-05-07T04:32:23;19.23;;;8.40;;
12707;SDS011;6418;50.824;4.718;2023-05-07T04:35:13;15.67;;;7.73;;
12707;SDS011;6418;50.824;4.718;2023-05-07T04:37:56;13.43;;;8.17;;
12707;SDS011;6418;50.824;4.718;2023-05-07T04:40:23;16.13;;;8.60;;
12707;SDS011;6418;50.824;4.718;2023-05-07T04:42:50;16.70;;;8.00;;
12707;SDS011;6418;50.824;4.718;2023-05-07T04:45:18;15.37;;;8.37;;
12707;SDS011;6418;50.824;4.718;2023-05-07T04:47:45;14.17;;;8.47;;
12707;SDS011;6418;50.824;4.718;2023-05-07T04:50:13;13.00;;;8.07;;
12707;SDS011;6418;50.824;4.718;2023-05-07T04:52:40;13.87;;;7.83;;
12707;SDS011;6418;50.824;4.718;2023-05-07T04:55:08;15.43;;;8.33;;
12707;SDS011;6418;50.824;4.718;2023-05-07T04:57:35;16.87;;;8.77;;
12707;SDS011;6418;50.824;4.718;2023-05-07T05:00:03;17.87;;;8.77;;
12707;SDS011;6418;50.824;4.718;2023-05-07T05:02:33;15.33;;;9.00;;
12707;SDS011;6418;50.824;4.718;2023-05-07T05:05:00;16.37;;;8.93;;
12707;SDS011;6418;50.824;4.718;2023-05-07T05:07:29;19.73;;;10.43;;
12707;SDS011;6418;50.824;4.718;2023-05-07T05:09:56;19.60;;;12.47;;
12707;SDS011;6418;50.824;4.718;2023-05-07T05:12:23;18.27;;;12.03;;
12707;SDS011;6418;50.824;4.718;2023-05-07T05:14:50;21.63;;;11.87;;
12707;SDS011;6418;50.824;4.718;2023-05-07T05:17:17;20.40;;;12.90;;
12707;SDS011;6418;50.824;4.718;2023-05-07T05:19:44;20.07;;;10.70;;
12707;SDS011;6418;50.824;4.718;2023-05-07T05:22:11;17.63;;;10.20;;
12707;SDS011;6418;50.824;4.718;2023-05-07T05:24:40;18.77;;;9.03;;
12707;SDS011;6418;50.824;4.718;2023-05-07T05:27:07;16.73;;;9.70;;
12707;SDS011;6418;50.824;4.718;2023-05-07T05:29:34;19.73;;;10.23;;
12707;SDS011;6418;50.824;4.718;2023-05-07T05:32:01;17.43;;;10.17;;
12707;SDS011;6418;50.824;4.718;2023-05-07T05:34:28;16.40;;;9.57;;
12707;SDS011;6418;50.824;4.718;2023-05-07T05:36:55;16.73;;;9.90;;
12707;SDS011;6418;50.824;4.718;2023-05-07T05:39:22;20.57;;;10.07;;
12707;SDS011;6418;50.824;4.718;2023-05-07T05:41:51;16.93;;;9.43;;
12707;SDS011;6418;50.824;4.718;2023-05-07T05:44:18;18.67;;;10.43;;
12707;SDS011;6418;50.824;4.718;2023-05-07T05:46:45;18.10;;;10.60;;
12707;SDS011;6418;50.824;4.718;2023-05-07T05:49:12;19.77;;;11.57;;
12707;SDS011;6418;50.824;4.718;2023-05-07T05:51:41;18.20;;;10.47;;
12707;SDS011;6418;50.824;4.718;2023-05-07T05:54:08;18.93;;;11.17;;
12707;SDS011;6418;50.824;4.718;2023-05-07T05:56:36;16.70;;;11.13;;
12707;SDS011;6418;50.824;4.718;2023-05-07T05:59:05;19.83;;;12.07;;
12707;SDS011;6418;50.824;4.718;2023-05-07T06:01:32;20.57;;;11.70;;
12707;SDS011;6418;50.824;4.718;2023-05-07T06:03:59;20.30;;;11.70;;
12707;SDS011;6418;50.824;4.718;2023-05-07T06:06:26;19.97;;;11.43;;
12707;SDS011;6418;50.824;4.718;2023-05-07T06:08:53;20.93;;;11.50;;
12707;SDS011;6418;50.824;4.718;2023-05-07T06:11:20;21.00;;;11.23;;
12707;SDS011;6418;50.824;4.718;2023-05-07T06:13:47;20.93;;;10.50;;
12707;SDS011;6418;50.824;4.718;2023-05-07T06:16:16;18.17;;;9.93;;
12707;SDS011;6418;50.824;4.718;2023-05-07T06:18:43;17.50;;;9.77;;
12707;SDS011;6418;50.824;4.718;2023-05-07T06:21:11;18.67;;;9.97;;
12707;SDS011;6418;50.824;4.718;2023-05-07T06:23:39;17.50;;;9.67;;
12707;SDS011;6418;50.824;4.718;2023-05-07T06:26:06;19.67;;;9.70;;
12707;SDS011;6418;50.824;4.718;2023-05-07T06:28:33;18.97;;;9.40;;
12707;SDS011;6418;50.824;4.718;2023-05-07T06:31:10;16.70;;;8.70;;
12707;SDS011;6418;50.824;4.718;2023-05-07T06:33:40;17.50;;;9.07;;
12707;SDS011;6418;50.824;4.718;2023-05-07T06:36:07;18.53;;;9.90;;
12707;SDS011;6418;50.824;4.718;2023-05-07T06:38:34;18.93;;;9.20;;
12707;SDS011;6418;50.824;4.718;2023-05-07T06:41:01;15.73;;;9.57;;
12707;SDS011;6418;50.824;4.718;2023-05-07T06:43:28;17.47;;;8.80;;
12707;SDS011;6418;50.824;4.718;2023-05-07T06:45:55;15.77;;;8.70;;
12707;SDS011;6418;50.824;4.718;2023-05-07T06:48:22;15.23;;;8.30;;
12707;SDS011;6418;50.824;4.718;2023-05-07T06:50:50;14.57;;;7.60;;
12707;SDS011;6418;50.824;4.718;2023-05-07T06:53:18;17.67;;;8.00;;
12707;SDS011;6418;50.824;4.718;2023-05-07T06:55:45;16.70;;;7.90;;
12707;SDS011;6418;50.824;4.718;2023-05-07T06:58:12;17.13;;;7.93;;
12707;SDS011;6418;50.824;4.718;2023-05-07T07:00:39;15.20;;;8.03;;
12707;SDS011;6418;50.824;4.718;2023-05-07T07:03:06;14.50;;;8.30;;
12707;SDS011;6418;50.824;4.718;2023-05-07T07:05:33;15.93;;;7.90;;
12707;SDS011;6418;50.824;4.718;2023-05-07T07:08:02;17.50;;;7.77;;
12707;SDS011;6418;50.824;4.718;2023-05-07T07:10:29;15.93;;;7.60;;
12707;SDS011;6418;50.824;4.718;2023-05-07T07:12:56;15.30;;;7.53;;
12707;SDS011;6418;50.824;4.718;2023-05-07T07:15:23;16.77;;;7.67;;
12707;SDS011;6418;50.824;4.718;2023-05-07T07:17:50;15.80;;;7.03;;
12707;SDS011;6418;50.824;4.718;2023-05-07T07:20:17;16.87;;;7.20;;
12707;SDS011;6418;50.824;4.718;2023-05-07T07:22:45;16.87;;;6.90;;
12707;SDS011;6418;50.824;4.718;2023-05-07T07:25:13;14.37;;;6.97;;
12707;SDS011;6418;50.824;4.718;2023-05-07T07:27:40;15.60;;;6.90;;
12707;SDS011;6418;50.824;4.718;2023-05-07T07:30:07;13.90;;;6.93;;
12707;SDS011;6418;50.824;4.718;2023-05-07T07:32:35;14.53;;;6.40;;
12707;SDS011;6418;50.824;4.718;2023-05-07T07:35:02;16.50;;;6.70;;
12707;SDS011;6418;50.824;4.718;2023-05-07T07:37:29;15.57;;;6.50;;
12707;SDS011;6418;50.824;4.718;2023-05-07T07:39:56;16.43;;;7.07;;
12707;SDS011;6418;50.824;4.718;2023-05-07T07:42:25;14.20;;;6.37;;
12707;SDS011;6418;50.824;4.718;2023-05-07T07:44:52;16.50;;;6.67;;
12707;SDS011;6418;50.824;4.718;2023-05-07T07:47:19;14.53;;;6.43;;
12707;SDS011;6418;50.824;4.718;2023-05-07T07:49:46;15.40;;;6.97;;
12707;SDS011;6418;50.824;4.718;2023-05-07T07:52:13;16.97;;;6.80;;
12707;SDS011;6418;50.824;4.718;2023-05-07T07:54:40;14.10;;;6.77;;
12707;SDS011;6418;50.824;4.718;2023-05-07T07:57:08;13.77;;;6.83;;
12707;SDS011;6418;50.824;4.718;2023-05-07T07:59:36;13.33;;;6.63;;
12707;SDS011;6418;50.824;4.718;2023-05-07T08:02:04;16.60;;;6.77;;
12707;SDS011;6418;50.824;4.718;2023-05-07T08:04:32;13.93;;;6.50;;
12707;SDS011;6418;50.824;4.718;2023-05-07T08:06:59;11.30;;;6.17;;
12707;SDS011;6418;50.824;4.718;2023-05-07T08:09:28;12.67;;;6.20;;
12707;SDS011;6418;50.824;4.718;2023-05-07T08:11:55;14.03;;;6.17;;
12707;SDS011;6418;50.824;4.718;2023-05-07T08:14:22;12.53;;;5.80;;
12707;SDS011;6418;50.824;4.718;2023-05-07T08:16:51;15.53;;;6.10;;
12707;SDS011;6418;50.824;4.718;2023-05-07T08:19:18;13.00;;;5.73;;
12707;SDS011;6418;50.824;4.718;2023-05-07T08:21:46;12.80;;;5.67;;
12707;SDS011;6418;50.824;4.718;2023-05-07T08:24:14;12.80;;;6.30;;
12707;SDS011;6418;50.824;4.718;2023-05-07T08:26:41;14.83;;;6.10;;
12707;SDS011;6418;50.824;4.718;2023-05-07T08:29:08;16.27;;;6.50;;
12707;SDS011;6418;50.824;4.718;2023-05-07T08:31:35;15.27;;;6.70;;
12707;SDS011;6418;50.824;4.718;2023-05-07T08:34:05;14.07;;;6.43;;
12707;SDS011;6418;50.824;4.718;2023-05-07T08:36:32;14.87;;;6.60;;
12707;SDS011;6418;50.824;4.718;2023-05-07T08:38:59;15.43;;;7.03;;
12707;SDS011;6418;50.824;4.718;2023-05-07T08:41:27;17.33;;;6.90;;
12707;SDS011;6418;50.824;4.718;2023-05-07T08:43:54;13.43;;;6.63;;
12707;SDS011;6418;50.824;4.718;2023-05-07T08:46:25;14.10;;;6.33;;
12707;SDS011;6418;50.824;4.718;2023-05-07T08:48:54;13.60;;;6.30;;
12707;SDS011;6418;50.824;4.718;2023-05-07T08:51:23;13.23;;;6.13;;
12707;SDS011;6418;50.824;4.718;2023-05-07T08:53:50;14.10;;;6.50;;
12707;SDS011;6418;50.824;4.718;2023-05-07T08:56:17;16.70;;;5.87;;
12707;SDS011;6418;50.824;4.718;2023-05-07T08:58:45;15.00;;;6.30;;
12707;SDS011;6418;50.824;4.718;2023-05-07T09:01:13;15.40;;;6.67;;
12707;SDS011;6418;50.824;4.718;2023-05-07T09:03:41;15.00;;;6.63;;
12707;SDS011;6418;50.824;4.718;2023-05-07T09:06:11;13.30;;;6.53;;
12707;SDS011;6418;50.824;4.718;2023-05-07T09:08:45;16.43;;;7.27;;
12707;SDS011;6418;50.824;4.718;2023-05-07T09:11:19;14.33;;;6.57;;
12707;SDS011;6418;50.824;4.718;2023-05-07T09:13:47;15.50;;;7.37;;
12707;SDS011;6418;50.824;4.718;2023-05-07T09:16:15;14.50;;;6.80;;
12707;SDS011;6418;50.824;4.718;2023-05-07T09:18:42;14.57;;;7.40;;
12707;SDS011;6418;50.824;4.718;2023-05-07T09:21:10;15.97;;;7.40;;
12707;SDS011;6418;50.824;4.718;2023-05-07T09:23:37;15.70;;;7.40;;
12707;SDS011;6418;50.824;4.718;2023-05-07T09:26:07;14.67;;;7.70;;
12707;SDS011;6418;50.824;4.718;2023-05-07T09:28:40;14.17;;;7.20;;
12707;SDS011;6418;50.824;4.718;2023-05-07T09:31:07;12.63;;;6.60;;
12707;SDS011;6418;50.824;4.718;2023-05-07T09:33:35;14.73;;;7.13;;
12707;SDS011;6418;50.824;4.718;2023-05-07T09:36:02;15.03;;;6.73;;
12707;SDS011;6418;50.824;4.718;2023-05-07T09:38:30;14.53;;;6.70;;
12707;SDS011;6418;50.824;4.718;2023-05-07T09:41:04;13.67;;;5.97;;
12707;SDS011;6418;50.824;4.718;2023-05-07T09:43:33;11.87;;;5.80;;
12707;SDS011;6418;50.824;4.718;2023-05-07T09:46:06;14.07;;;6.40;;
12707;SDS011;6418;50.824;4.718;2023-05-07T09:48:38;14.83;;;7.17;;
12707;SDS011;6418;50.824;4.718;2023-05-07T09:51:09;15.47;;;7.10;;
12707;SDS011;6418;50.824;4.718;2023-05-07T09:53:44;16.30;;;7.30;;
12707;SDS011;6418;50.824;4.718;2023-05-07T09:56:13;14.43;;;7.10;;
12707;SDS011;6418;50.824;4.718;2023-05-07T09:58:42;14.00;;;6.77;;
12707;SDS011;6418;50.824;4.718;2023-05-07T10:01:11;14.77;;;6.93;;
12707;SDS011;6418;50.824;4.718;2023-05-07T10:03:39;13.57;;;6.83;;
12707;SDS011;6418;50.824;4.718;2023-05-07T10:06:08;14.53;;;7.27;;
12707;SDS011;6418;50.824;4.718;2023-05-07T10:08:35;15.43;;;7.27;;
12707;SDS011;6418;50.824;4.718;2023-05-07T10:11:03;15.60;;;7.60;;
12707;SDS011;6418;50.824;4.718;2023-05-07T10:13:33;14.83;;;7.23;;
12707;SDS011;6418;50.824;4.718;2023-05-07T10:16:04;14.67;;;7.43;;
12707;SDS011;6418;50.824;4.718;2023-05-07T10:18:33;15.13;;;7.50;;
12707;SDS011;6418;50.824;4.718;2023-05-07T10:21:01;18.27;;;7.63;;
12707;SDS011;6418;50.824;4.718;2023-05-07T10:23:32;14.67;;;7.30;;
12707;SDS011;6418;50.824;4.718;2023-05-07T10:26:00;17.43;;;8.03;;
12707;SDS011;6418;50.824;4.718;2023-05-07T10:28:30;17.87;;;7.00;;
12707;SDS011;6418;50.824;4.718;2023-05-07T10:31:07;16.07;;;6.80;;
12707;SDS011;6418;50.824;4.718;2023-05-07T10:33:44;13.80;;;6.27;;
12707;SDS011;6418;50.824;4.718;2023-05-07T10:36:15;14.67;;;6.77;;
12707;SDS011;6418;50.824;4.718;2023-05-07T10:38:43;15.40;;;6.10;;
12707;SDS011;6418;50.824;4.718;2023-05-07T10:41:11;14.73;;;6.70;;
12707;SDS011;6418;50.824;4.718;2023-05-07T10:43:39;14.07;;;6.90;;
12707;SDS011;6418;50.824;4.718;2023-05-07T10:46:13;13.00;;;6.17;;
12707;SDS011;6418;50.824;4.718;2023-05-07T10:51:34;15.63;;;6.57;;
12707;SDS011;6418;50.824;4.718;2023-05-07T10:54:23;12.90;;;6.10;;
12707;SDS011;6418;50.824;4.718;2023-05-07T10:56:50;15.70;;;5.70;;
12707;SDS011;6418;50.824;4.718;2023-05-07T10:59:35;13.33;;;5.57;;
12707;SDS011;6418;50.824;4.718;2023-05-07T11:02:09;13.03;;;5.30;;
12707;SDS011;6418;50.824;4.718;2023-05-07T11:04:39;17.57;;;5.70;;
12707;SDS011;6418;50.824;4.718;2023-05-07T11:09:58;11.37;;;5.13;;
12707;SDS011;6418;50.824;4.718;2023-05-07T11:18:03;11.83;;;5.00;;
12707;SDS011;6418;50.824;4.718;2023-05-07T11:20:47;13.17;;;5.27;;
12707;SDS011;6418;50.824;4.718;2023-05-07T11:26:26;12.63;;;5.00;;
12707;SDS011;6418;50.824;4.718;2023-05-07T11:28:57;11.00;;;4.70;;
12707;SDS011;6418;50.824;4.718;2023-05-07T11:31:27;7.90;;;4.63;;
12707;SDS011;6418;50.824;4.718;2023-05-07T11:33:56;11.27;;;4.77;;
12707;SDS011;6418;50.824;4.718;2023-05-07T11:36:24;12.47;;;4.67;;
12707;SDS011;6418;50.824;4.718;2023-05-07T11:38:52;10.83;;;4.50;;
12707;SDS011;6418;50.824;4.718;2023-05-07T11:41:19;10.57;;;4.50;;
12707;SDS011;6418;50.824;4.718;2023-05-07T11:43:53;12.13;;;5.00;;
12707;SDS011;6418;50.824;4.718;2023-05-07T11:46:22;12.67;;;4.93;;
12707;SDS011;6418;50.824;4.718;2023-05-07T11:48:49;8.37;;;4.40;;
12707;SDS011;6418;50.824;4.718;2023-05-07T11:51:20;9.63;;;4.60;;
12707;SDS011;6418;50.824;4.718;2023-05-07T11:53:49;12.17;;;4.80;;
12707;SDS011;6418;50.824;4.718;2023-05-07T11:56:17;12.37;;;4.37;;
12707;SDS011;6418;50.824;4.718;2023-05-07T11:58:45;7.97;;;4.37;;
12707;SDS011;6418;50.824;4.718;2023-05-07T12:01:13;8.70;;;4.40;;
12707;SDS011;6418;50.824;4.718;2023-05-07T12:03:42;8.77;;;4.40;;
12707;SDS011;6418;50.824;4.718;2023-05-07T12:06:11;7.40;;;4.20;;
12707;SDS011;6418;50.824;4.718;2023-05-07T12:08:40;11.47;;;4.50;;
12707;SDS011;6418;50.824;4.718;2023-05-07T12:11:09;6.73;;;3.80;;
12707;SDS011;6418;50.824;4.718;2023-05-07T12:13:38;8.40;;;4.00;;
12707;SDS011;6418;50.824;4.718;2023-05-07T12:16:07;9.47;;;4.00;;
12707;SDS011;6418;50.824;4.718;2023-05-07T12:18:35;7.73;;;3.90;;
12707;SDS011;6418;50.824;4.718;2023-05-07T12:21:04;9.97;;;4.20;;
12707;SDS011;6418;50.824;4.718;2023-05-07T12:23:33;8.53;;;3.90;;
12707;SDS011;6418;50.824;4.718;2023-05-07T12:26:01;8.53;;;4.07;;
12707;SDS011;6418;50.824;4.718;2023-05-07T12:28:29;7.27;;;3.93;;
12707;SDS011;6418;50.824;4.718;2023-05-07T12:30:56;10.50;;;4.00;;
12707;SDS011;6418;50.824;4.718;2023-05-07T12:33:24;10.43;;;4.20;;
12707;SDS011;6418;50.824;4.718;2023-05-07T12:35:53;7.80;;;4.10;;
12707;SDS011;6418;50.824;4.718;2023-05-07T12:38:21;11.63;;;4.47;;
12707;SDS011;6418;50.824;4.718;2023-05-07T12:40:49;9.13;;;4.03;;
12707;SDS011;6418;50.824;4.718;2023-05-07T12:43:19;7.10;;;4.03;;
12707;SDS011;6418;50.824;4.718;2023-05-07T12:45:48;10.10;;;4.30;;
12707;SDS011;6418;50.824;4.718;2023-05-07T12:48:16;8.17;;;4.00;;
12707;SDS011;6418;50.824;4.718;2023-05-07T12:50:45;9.50;;;4.43;;
12707;SDS011;6418;50.824;4.718;2023-05-07T12:53:15;10.10;;;4.37;;
12707;SDS011;6418;50.824;4.718;2023-05-07T12:55:43;6.77;;;3.93;;
12707;SDS011;6418;50.824;4.718;2023-05-07T12:58:15;7.70;;;4.00;;
12707;SDS011;6418;50.824;4.718;2023-05-07T13:00:45;7.57;;;4.10;;
12707;SDS011;6418;50.824;4.718;2023-05-07T13:03:20;9.10;;;4.10;;
12707;SDS011;6418;50.824;4.718;2023-05-07T13:05:49;9.40;;;4.23;;
12707;SDS011;6418;50.824;4.718;2023-05-07T13:08:29;10.90;;;4.27;;
12707;SDS011;6418;50.824;4.718;2023-05-07T13:10:58;7.17;;;4.03;;
12707;SDS011;6418;50.824;4.718;2023-05-07T13:13:29;10.82;;;4.60;;
12707;SDS011;6418;50.824;4.718;2023-05-07T13:15:57;9.40;;;4.57;;
12707;SDS011;6418;50.824;4.718;2023-05-07T13:18:25;8.52;;;4.25;;
12707;SDS011;6418;50.824;4.718;2023-05-07T13:20:53;8.60;;;4.50;;
12707;SDS011;6418;50.824;4.718;2023-05-07T13:23:20;10.35;;;4.65;;
12707;SDS011;6418;50.824;4.718;2023-05-07T13:25:47;9.85;;;4.80;;
12707;SDS011;6418;50.824;4.718;2023-05-07T13:28:15;11.35;;;4.90;;
12707;SDS011;6418;50.824;4.718;2023-05-07T13:30:42;9.10;;;4.93;;
12707;SDS011;6418;50.824;4.718;2023-05-07T13:33:11;10.68;;;4.97;;
12707;SDS011;6418;50.824;4.718;2023-05-07T13:35:38;10.05;;;5.20;;
12707;SDS011;6418;50.824;4.718;2023-05-07T13:38:05;10.00;;;4.80;;
12707;SDS011;6418;50.824;4.718;2023-05-07T13:40:32;7.93;;;4.40;;
12707;SDS011;6418;50.824;4.718;2023-05-07T13:42:59;9.77;;;4.60;;
12707;SDS011;6418;50.824;4.718;2023-05-07T13:45:27;9.02;;;4.80;;
12707;SDS011;6418;50.824;4.718;2023-05-07T13:47:55;10.18;;;4.55;;
12707;SDS011;6418;50.824;4.718;2023-05-07T13:50:24;9.75;;;4.25;;
12707;SDS011;6418;50.824;4.718;2023-05-07T13:52:54;12.75;;;4.55;;
12707;SDS011;6418;50.824;4.718;2023-05-07T13:55:23;11.23;;;4.70;;
12707;SDS011;6418;50.824;4.718;2023-05-07T13:57:54;9.85;;;4.82;;
12707;SDS011;6418;50.824;4.718;2023-05-07T14:00:23;10.52;;;4.80;;
12707;SDS011;6418;50.824;4.718;2023-05-07T14:02:50;9.32;;;4.63;;
12707;SDS011;6418;50.824;4.718;2023-05-07T14:05:17;10.68;;;4.65;;
12707;SDS011;6418;50.824;4.718;2023-05-07T14:07:45;11.43;;;4.80;;
12707;SDS011;6418;50.824;4.718;2023-05-07T14:10:14;8.50;;;4.60;;
12707;SDS011;6418;50.824;4.718;2023-05-07T14:12:41;11.70;;;5.30;;
12707;SDS011;6418;50.824;4.718;2023-05-07T14:15:08;10.90;;;5.30;;
12707;SDS011;6418;50.824;4.718;2023-05-07T14:17:35;10.90;;;5.03;;
12707;SDS011;6418;50.824;4.718;2023-05-07T14:20:03;10.57;;;5.00;;
12707;SDS011;6418;50.824;4.718;2023-05-07T14:22:32;7.50;;;5.10;;
12707;SDS011;6418;50.824;4.718;2023-05-07T14:25:00;11.13;;;5.27;;
12707;SDS011;6418;50.824;4.718;2023-05-07T14:27:27;10.67;;;5.27;;
12707;SDS011;6418;50.824;4.718;2023-05-07T14:29:54;9.27;;;5.07;;
12707;SDS011;6418;50.824;4.718;2023-05-07T14:32:21;10.63;;;5.35;;
12707;SDS011;6418;50.824;4.718;2023-05-07T14:34:48;10.33;;;5.20;;
12707;SDS011;6418;50.824;4.718;2023-05-07T14:37:16;14.93;;;5.73;;
12707;SDS011;6418;50.824;4.718;2023-05-07T14:39:44;11.00;;;5.70;;
12707;SDS011;6418;50.824;4.718;2023-05-07T14:42:13;10.30;;;5.20;;
12707;SDS011;6418;50.824;4.718;2023-05-07T14:44:40;11.03;;;5.30;;
12707;SDS011;6418;50.824;4.718;2023-05-07T14:47:07;9.57;;;5.17;;
12707;SDS011;6418;50.824;4.718;2023-05-07T14:49:34;9.93;;;5.17;;
12707;SDS011;6418;50.824;4.718;2023-05-07T14:52:02;9.97;;;5.37;;
12707;SDS011;6418;50.824;4.718;2023-05-07T14:54:33;10.67;;;5.37;;
12707;SDS011;6418;50.824;4.718;2023-05-07T14:57:00;9.87;;;5.37;;
12707;SDS011;6418;50.824;4.718;2023-05-07T14:59:28;8.47;;;5.23;;
12707;SDS011;6418;50.824;4.718;2023-05-07T15:01:55;10.80;;;5.40;;
12707;SDS011;6418;50.824;4.718;2023-05-07T15:04:23;8.77;;;5.10;;
12707;SDS011;6418;50.824;4.718;2023-05-07T15:06:50;9.07;;;5.00;;
12707;SDS011;6418;50.824;4.718;2023-05-07T15:09:18;9.77;;;5.20;;
12707;SDS011;6418;50.824;4.718;2023-05-07T15:11:45;11.00;;;5.20;;
12707;SDS011;6418;50.824;4.718;2023-05-07T15:14:12;11.23;;;5.20;;
12707;SDS011;6418;50.824;4.718;2023-05-07T15:16:41;11.23;;;5.50;;
12707;SDS011;6418;50.824;4.718;2023-05-07T15:19:08;11.30;;;5.23;;
12707;SDS011;6418;50.824;4.718;2023-05-07T15:21:35;11.40;;;5.43;;
12707;SDS011;6418;50.824;4.718;2023-05-07T15:24:02;12.87;;;5.50;;
12707;SDS011;6418;50.824;4.718;2023-05-07T15:26:29;11.37;;;5.70;;
12707;SDS011;6418;50.824;4.718;2023-05-07T15:28:56;12.20;;;5.87;;
12707;SDS011;6418;50.824;4.718;2023-05-07T15:31:23;12.50;;;5.53;;
12707;SDS011;6418;50.824;4.718;2023-05-07T15:33:51;10.13;;;5.65;;
12707;SDS011;6418;50.824;4.718;2023-05-07T15:36:19;10.77;;;6.07;;
12707;SDS011;6418;50.824;4.718;2023-05-07T15:38:47;11.07;;;5.83;;